CheckWX is a tool to help pilots better visualize weather data.  It is not intended as a substitute for an official pre-flight weather briefing.

10:41:11 UTC

KDLS TAF
Columbia Gorge Regional / The Dalles Municipal Airport
The Dalles, Oregon, USA
KDLS 170520Z 1706/1806 31007KT P6SM SCT060 BKN200 FM171500 VRB05KT P6SM -RA OVC035

Sep-17@
06:00 UTC

Sep-17 @ 06:00 UTC

Sep-17@
15:00 UTC

Sep-17 @ 15:00 UTC

KDLS 170520Z 1706/1806 31007KT P6SM SCT060 BKN200
Wind
  • 310° at 7 KTS
Cloud Levels
  • Scattered at 6,000' AGL
  • Broken at 20,000' AGL

Sep-17@
15:00 UTC

Sep-17 @ 15:00 UTC

Sep-18@
06:00 UTC

Sep-18 @ 06:00 UTC

FM171500 VRB05KT P6SM -RA OVC035

From

From Standard forecast or significant change

Wind
  • Variable at 5 KTS
Conditions
Light Rain
Cloud Levels
  • Overcast at 3,500' AGL